Time;durP1;ratioP1;P1;durP2;ratioP2;P2;SDS_P1;SDS_P2;PMS_P1;PMS_P2;Temp;Humidity;BMP_temperature;BMP_pressure;BME280_temperature;BME280_humidity;BME280_pressure;Samples;Min_cycle;Max_cycle;Signal;HPM_P1;HPM_P2
2023/02/01 00:01:35;;;;;;;24.20;8.90;;;;;;;-1.69;100.00;96494.64;107155;1277;1003100;-75
2023/02/01 00:04:04;;;;;;;31.60;11.90;;;;;;;-1.69;100.00;96492.59;107839;1277;22544;-76
2023/02/01 00:06:33;;;;;;;23.30;10.80;;;;;;;-1.70;100.00;96489.66;107978;1277;23791;-77
2023/02/01 00:09:03;;;;;;;24.30;10.00;;;;;;;-1.71;100.00;96481.45;108018;1277;25429;-75
2023/02/01 00:11:31;;;;;;;27.20;10.60;;;;;;;-1.73;100.00;96480.61;107963;1277;24244;-76
2023/02/01 00:14:00;;;;;;;24.00;10.10;;;;;;;-1.75;100.00;96482.21;107936;1277;23896;-75
2023/02/01 00:16:29;;;;;;;25.70;9.40;;;;;;;-1.76;100.00;96479.02;108163;1277;25426;-76
2023/02/01 00:19:06;;;;;;;25.10;9.00;;;;;;;-1.77;100.00;96475.95;107926;1277;25307;-76
2023/02/01 00:21:35;;;;;;;23.60;8.30;;;;;;;-1.78;100.00;96465.29;108010;1277;23956;-76
2023/02/01 00:24:03;;;;;;;24.30;9.00;;;;;;;-1.78;100.00;96463.42;107854;1277;22525;-76
2023/02/01 00:26:33;;;;;;;18.80;8.20;;;;;;;-1.78;100.00;96463.25;107889;1277;22537;-76
2023/02/01 00:29:03;;;;;;;22.50;7.90;;;;;;;-1.78;100.00;96458.57;107856;1277;25420;-76
2023/02/01 00:31:32;;;;;;;18.40;7.80;;;;;;;-1.77;100.00;96454.61;107147;1277;1003489;-77
2023/02/01 00:34:00;;;;;;;18.90;7.50;;;;;;;-1.76;100.00;96451.14;107105;1277;1003052;-76
2023/02/01 00:36:29;;;;;;;17.50;7.70;;;;;;;-1.76;100.00;96444.91;107835;1277;25445;-77
2023/02/01 00:38:58;;;;;;;18.90;7.90;;;;;;;-1.74;100.00;96438.00;108038;1277;25416;-75
2023/02/01 00:41:27;;;;;;;22.50;8.70;;;;;;;-1.73;100.00;96434.15;107262;1277;1002990;-75
2023/02/01 00:43:56;;;;;;;23.50;9.00;;;;;;;-1.71;100.00;96430.63;107139;1277;1003796;-76
2023/02/01 00:46:24;;;;;;;22.50;8.30;;;;;;;-1.72;100.00;96423.77;107912;1277;22529;-74
2023/02/01 00:48:53;;;;;;;19.20;7.90;;;;;;;-1.72;100.00;96418.20;107217;1278;1002677;-77
2023/02/01 00:51:24;;;;;;;21.50;8.60;;;;;;;-1.72;100.00;96410.24;108055;1277;22477;-76
2023/02/01 00:53:53;;;;;;;23.00;9.00;;;;;;;-1.72;100.00;96398.71;108081;1277;24279;-76
2023/02/01 00:56:22;;;;;;;19.50;8.30;;;;;;;-1.72;100.00;96395.17;108132;1277;23747;-76
2023/02/01 00:58:50;;;;;;;19.10;7.80;;;;;;;-1.72;100.00;96385.28;108003;1277;22537;-76
2023/02/01 01:01:21;;;;;;;19.70;8.10;;;;;;;-1.72;100.00;96379.45;108013;1277;22547;-76
2023/02/01 01:03:52;;;;;;;19.60;8.00;;;;;;;-1.72;100.00;96371.08;108094;1277;22634;-76
2023/02/01 01:06:23;;;;;;;20.50;8.30;;;;;;;-1.74;100.00;96370.86;107985;1277;25434;-76
2023/02/01 01:08:53;;;;;;;18.60;7.70;;;;;;;-1.75;100.00;96367.98;107671;1277;22594;-76
2023/02/01 01:11:26;;;;;;;20.60;8.80;;;;;;;-1.76;100.00;96365.69;107563;1277;22549;-75
2023/02/01 01:13:55;;;;;;;22.00;8.50;;;;;;;-1.77;100.00;96359.08;106868;1277;1002905;-76
2023/02/01 01:16:25;;;;;;;24.10;9.80;;;;;;;-1.79;100.00;96352.61;107778;1277;22538;-76
2023/02/01 01:18:56;;;;;;;23.40;9.60;;;;;;;-1.81;100.00;96343.17;107815;1277;25419;-75
2023/02/01 01:21:25;;;;;;;20.40;9.20;;;;;;;-1.83;100.00;96343.71;107926;1277;22534;-77
2023/02/01 01:23:54;;;;;;;24.70;9.80;;;;;;;-1.83;100.00;96340.77;107732;1278;22523;-77
2023/02/01 01:26:24;;;;;;;24.50;10.30;;;;;;;-1.83;100.00;96342.73;107666;1277;22519;-76
2023/02/01 01:28:55;;;;;;;23.70;9.80;;;;;;;-1.85;100.00;96336.70;107221;1277;1003353;-76
2023/02/01 01:31:25;;;;;;;23.80;8.70;;;;;;;-1.86;100.00;96334.02;108064;1277;22539;-76
2023/02/01 01:33:57;;;;;;;22.50;9.30;;;;;;;-1.86;100.00;96329.83;108017;1277;25419;-76
2023/02/01 01:36:27;;;;;;;22.20;9.20;;;;;;;-1.86;100.00;96327.38;107877;1277;23018;-75
2023/02/01 01:38:55;;;;;;;20.60;9.10;;;;;;;-1.86;100.00;96329.09;107020;1277;1002494;-76
2023/02/01 01:41:26;;;;;;;21.80;8.50;;;;;;;-1.86;100.00;96330.76;107208;1277;1003291;-75
2023/02/01 01:44:01;;;;;;;19.90;9.50;;;;;;;-1.86;100.00;96332.85;107945;1277;22528;-75
2023/02/01 01:46:32;;;;;;;21.70;9.60;;;;;;;-1.86;100.00;96331.38;107789;1277;22484;-76
2023/02/01 01:49:19;;;;;;;24.90;10.30;;;;;;;-1.87;100.00;96335.55;107933;1277;22526;-78
2023/02/01 01:51:51;;;;;;;21.20;8.60;;;;;;;-1.88;100.00;96324.81;107244;1277;1003366;-76
2023/02/01 01:54:47;;;;;;;25.40;10.50;;;;;;;-1.90;100.00;96327.98;108060;1277;26039;-77
2023/02/01 01:57:39;;;;;;;20.60;8.40;;;;;;;-1.91;100.00;96307.89;107232;1277;1002942;-75
2023/02/01 02:00:13;;;;;;;24.50;9.50;;;;;;;-1.92;100.00;96297.86;107884;1278;22486;-76
2023/02/01 02:03:15;;;;;;;;;;;;;;;-1.95;100.00;96291.90;107226;1277;1002433;-76
2023/02/01 02:05:44;;;;;;;20.30;8.80;;;;;;;-1.98;100.00;96296.59;107838;1277;22585;-76
2023/02/01 02:08:12;;;;;;;26.20;11.50;;;;;;;-2.00;100.00;96299.73;107855;1278;25351;-76
2023/02/01 02:10:59;;;;;;;20.00;8.80;;;;;;;-2.02;100.00;96293.54;107801;1277;25428;-75
2023/02/01 02:13:30;;;;;;;25.40;9.60;;;;;;;-2.01;100.00;96279.33;107877;1277;26518;-76
2023/02/01 02:16:21;;;;;;;23.40;9.40;;;;;;;-2.00;100.00;96289.14;108042;1277;26546;-77
2023/02/01 02:19:16;;;;;;;22.60;9.50;;;;;;;-2.01;100.00;96271.83;108046;1277;24016;-77
2023/02/01 02:21:59;;;;;;;25.20;10.10;;;;;;;-2.02;100.00;96262.54;107970;1277;22465;-76
2023/02/01 02:24:41;;;;;;;24.50;10.00;;;;;;;-2.02;100.00;96242.39;107926;1277;23730;-75
2023/02/01 02:27:34;;;;;;;24.80;9.80;;;;;;;-2.03;100.00;96205.62;107920;1277;22636;-77
2023/02/01 02:30:41;;;;;;;;;;;;;;;-2.05;100.00;96175.17;107940;1277;22461;-76
2023/02/01 02:33:19;;;;;;;24.10;10.70;;;;;;;-2.06;100.00;96081.98;106958;1283;1003809;-77
2023/02/01 02:36:03;;;;;;;23.10;9.60;;;;;;;-2.08;100.00;96068.45;107611;1284;24204;-77
2023/02/01 02:38:56;;;;;;;21.30;9.40;;;;;;;-2.10;100.00;96065.17;107988;1277;25463;-77
2023/02/01 02:48:04;;;;;;;21.50;9.50;;;;;;;-2.20;100.00;96050.13;107257;1277;1003356;-76
2023/02/01 03:05:21;;;;;;;27.80;11.10;;;;;;;-2.40;100.00;96061.89;107585;1277;1002972;-77
2023/02/01 03:08:13;;;;;;;27.00;11.00;;;;;;;-2.45;100.00;96081.05;108105;1277;25413;-76
2023/02/01 03:11:05;;;;;;;28.30;11.10;;;;;;;-2.50;100.00;96076.15;108037;1277;23041;-75
2023/02/01 03:13:38;;;;;;;25.00;10.50;;;;;;;-2.54;100.00;96082.79;107797;1278;26619;-76
2023/02/01 03:16:28;;;;;;;26.20;11.70;;;;;;;-2.57;100.00;96099.95;107738;1277;23002;-77
2023/02/01 03:19:06;;;;;;;25.80;10.60;;;;;;;-2.62;100.00;96095.98;107577;1277;25309;-77
2023/02/01 03:21:44;;;;;;;24.20;9.90;;;;;;;-2.67;100.00;96109.39;107824;1277;25433;-78
2023/02/01 03:24:33;;;;;;;24.10;9.70;;;;;;;-2.71;100.00;96119.89;107116;1277;1003036;-76
2023/02/01 03:27:24;;;;;;;25.20;10.40;;;;;;;-2.76;100.00;96122.30;107975;1278;26497;-77
2023/02/01 03:30:10;;;;;;;25.20;9.70;;;;;;;-2.81;100.00;96127.48;108083;1277;24257;-77
2023/02/01 03:33:00;;;;;;;22.90;10.30;;;;;;;-2.86;100.00;96133.34;107849;1277;25319;-77
2023/02/01 03:35:45;;;;;;;27.40;11.00;;;;;;;-2.92;100.00;96135.46;107371;1277;1003099;-76
2023/02/01 03:38:22;;;;;;;27.90;11.70;;;;;;;-2.97;100.00;96152.60;108080;1278;22471;-77
2023/02/01 03:41:01;;;;;;;27.30;11.90;;;;;;;-3.00;100.00;96160.39;107370;1277;1002496;-75
2023/02/01 03:43:34;;;;;;;28.90;11.70;;;;;;;-3.02;100.00;96166.96;108135;1277;23865;-77
2023/02/01 03:46:04;;;;;;;29.80;10.80;;;;;;;-3.00;100.00;96171.20;107371;1277;1003294;-77
2023/02/01 03:48:33;;;;;;;32.60;11.70;;;;;;;-2.98;100.00;96168.48;107422;1277;1003070;-76
2023/02/01 03:51:04;;;;;;;30.40;11.90;;;;;;;-2.96;100.00;96163.27;108110;1278;22718;-76
2023/02/01 03:53:36;;;;;;;27.30;10.20;;;;;;;-2.93;100.00;96159.55;107718;1277;25319;-77
2023/02/01 03:56:07;;;;;;;32.80;11.70;;;;;;;-2.90;100.00;96148.45;107119;1277;1003491;-77
2023/02/01 03:58:36;;;;;;;26.60;10.20;;;;;;;-2.87;100.00;96141.27;107119;1277;1002599;-76
2023/02/01 04:01:07;;;;;;;27.10;11.40;;;;;;;-2.83;100.00;96131.14;107888;1277;25367;-76
2023/02/01 04:03:37;;;;;;;27.30;9.90;;;;;;;-2.80;100.00;96126.19;108291;1277;23754;-77
2023/02/01 04:06:06;;;;;;;24.90;9.30;;;;;;;-2.78;100.00;96116.17;107889;1277;24016;-77
2023/02/01 04:08:36;;;;;;;27.50;9.90;;;;;;;-2.75;100.00;96100.46;108110;1277;22517;-77
2023/02/01 04:11:06;;;;;;;23.30;9.30;;;;;;;-2.71;100.00;96079.70;108001;1277;23882;-77
2023/02/01 04:13:36;;;;;;;25.30;9.80;;;;;;;-2.67;100.00;96057.23;107954;1277;25963;-76
2023/02/01 04:16:05;;;;;;;25.30;9.10;;;;;;;-2.64;100.00;96040.98;108009;1278;22527;-77
2023/02/01 04:18:34;;;;;;;21.50;8.10;;;;;;;-2.61;100.00;96019.30;108093;1277;25309;-77
2023/02/01 04:21:03;;;;;;;18.80;8.10;;;;;;;-2.57;100.00;95968.23;108115;1277;24263;-77
2023/02/01 04:23:34;;;;;;;23.20;9.10;;;;;;;-2.54;100.00;95935.39;108072;1277;22534;-77
2023/02/01 04:26:03;;;;;;;21.90;9.30;;;;;;;-2.51;100.00;95882.34;108144;1277;22880;-76
2023/02/01 04:28:32;;;;;;;29.20;11.10;;;;;;;-2.49;100.00;95848.75;107252;1276;1002682;-77
2023/02/01 04:31:00;;;;;;;21.80;9.30;;;;;;;-2.50;100.00;95823.14;107305;1276;1003675;-77
2023/02/01 04:33:29;;;;;;;21.20;9.20;;;;;;;-2.50;100.00;95791.40;107259;1277;1003086;-77
2023/02/01 04:35:58;;;;;;;22.10;9.30;;;;;;;-2.52;100.00;95746.67;107304;1277;1002937;-76
2023/02/01 04:38:29;;;;;;;19.00;8.20;;;;;;;-2.52;100.00;95716.69;107351;1277;1015111;-78
2023/02/01 04:40:59;;;;;;;18.60;7.70;;;;;;;-2.52;100.00;95696.71;107224;1277;1002487;-76
2023/02/01 04:43:28;;;;;;;24.40;10.80;;;;;;;-2.51;100.00;95678.94;107931;1277;25431;-76
2023/02/01 04:45:56;;;;;;;22.70;9.00;;;;;;;-2.50;100.00;95671.06;107119;1277;1002892;-77
2023/02/01 04:48:28;;;;;;;24.20;9.40;;;;;;;-2.49;100.00;95658.31;107772;1277;23946;-77
2023/02/01 04:50:57;;;;;;;23.80;9.70;;;;;;;-2.48;100.00;95653.17;107697;1277;22542;-76
2023/02/01 04:53:26;;;;;;;30.70;11.60;;;;;;;-2.47;100.00;95642.02;107076;1277;1016082;-76
2023/02/01 04:55:56;;;;;;;30.90;12.40;;;;;;;-2.45;100.00;95623.94;107027;1277;1003448;-78
2023/02/01 04:58:25;;;;;;;30.80;13.20;;;;;;;-2.43;100.00;95614.83;108140;1276;22532;-77
2023/02/01 05:00:53;;;;;;;27.80;12.80;;;;;;;-2.42;100.00;95598.34;108243;1278;22715;-76
2023/02/01 05:03:22;;;;;;;30.20;13.40;;;;;;;-2.42;100.00;95586.30;108217;1276;22479;-77
2023/02/01 05:05:53;;;;;;;32.10;13.30;;;;;;;-2.40;100.00;95568.41;107416;1277;1003348;-76
2023/02/01 05:08:22;;;;;;;31.10;13.10;;;;;;;-2.37;100.00;95555.14;108189;1277;23281;-78
2023/02/01 05:10:51;;;;;;;32.80;13.60;;;;;;;-2.35;100.00;95542.36;108045;1277;23866;-77
2023/02/01 05:16:07;;;;;;;40.00;18.10;;;;;;;-2.36;100.00;95517.58;108049;1278;25428;-77
2023/02/01 05:18:35;;;;;;;65.00;28.50;;;;;;;-2.37;100.00;95526.46;107775;1277;25427;-77
2023/02/01 05:21:04;;;;;;;110.50;47.70;;;;;;;-2.39;100.00;95521.89;107984;1277;25436;-78
2023/02/01 05:24:09;;;;;;;44.60;23.40;;;;;;;-2.41;100.00;95517.81;108108;1277;22561;-78
2023/02/01 05:26:24;;;;;;;34.10;16.00;;;;;;;-2.44;100.00;95496.60;108217;1277;25335;-77
2023/02/01 05:28:53;;;;;;;36.30;14.60;;;;;;;-2.45;100.00;95507.55;107551;1277;1002334;-76
2023/02/01 05:31:22;;;;;;;41.90;18.30;;;;;;;-2.46;100.00;95496.70;108205;1277;22819;-78
2023/02/01 05:33:50;;;;;;;36.60;15.30;;;;;;;-2.47;100.00;95487.69;108121;1277;22723;-76
2023/02/01 05:36:19;;;;;;;35.70;15.20;;;;;;;-2.48;100.00;95484.47;107919;1277;23865;-77
2023/02/01 05:38:47;;;;;;;33.10;13.40;;;;;;;-2.47;100.00;95473.77;108185;1269;23962;-77
2023/02/01 05:41:16;;;;;;;30.40;12.20;;;;;;;-2.46;100.00;95462.78;108428;1277;26521;-77
2023/02/01 05:43:45;;;;;;;28.80;11.10;;;;;;;-2.46;100.00;95463.56;108252;1277;23899;-77
2023/02/01 05:46:14;;;;;;;31.60;12.80;;;;;;;-2.45;100.00;95463.13;108253;1277;22577;-76
2023/02/01 05:48:43;;;;;;;30.50;10.70;;;;;;;-2.45;100.00;95460.64;108315;1277;22550;-77
2023/02/01 05:51:13;;;;;;;29.40;11.20;;;;;;;-2.43;100.00;95445.58;107514;1277;1003727;-77
2023/02/01 05:53:42;;;;;;;39.90;17.60;;;;;;;-2.42;100.00;95426.95;108112;1277;23918;-78
2023/02/01 05:56:10;;;;;;;33.00;14.90;;;;;;;-2.42;100.00;95426.70;107305;1277;1002593;-76
2023/02/01 05:58:40;;;;;;;32.50;12.90;;;;;;;-2.41;100.00;95414.59;107846;1277;25252;-78
2023/02/01 06:01:08;;;;;;;34.30;11.70;;;;;;;-2.41;100.00;95405.44;107935;1277;24295;-77
2023/02/01 06:03:38;;;;;;;32.40;12.50;;;;;;;-2.41;100.00;95395.77;107230;1276;1002884;-76
2023/02/01 06:06:06;;;;;;;31.70;11.30;;;;;;;-2.42;100.00;95386.41;108058;1276;25427;-77
2023/02/01 06:08:35;;;;;;;32.60;12.10;;;;;;;-2.42;100.00;95389.05;107854;1276;1016219;-77
2023/02/01 06:11:04;;;;;;;33.40;12.50;;;;;;;-2.41;100.00;95384.29;107974;1276;23014;-78
2023/02/01 06:13:33;;;;;;;30.00;11.80;;;;;;;-2.44;100.00;95378.63;107970;1269;22571;-79
2023/02/01 06:16:02;;;;;;;26.00;11.70;;;;;;;-2.47;100.00;95373.59;107301;1270;1003233;-78
2023/02/01 06:18:34;;;;;;;26.90;9.90;;;;;;;-2.50;100.00;95368.98;107321;1273;1003066;-77
2023/02/01 06:21:03;;;;;;;26.90;10.00;;;;;;;-2.51;100.00;95365.30;107967;1270;22479;-78
2023/02/01 06:23:32;;;;;;;28.10;9.90;;;;;;;-2.51;100.00;95352.96;107310;1269;1003007;-78
2023/02/01 06:26:04;;;;;;;28.60;9.80;;;;;;;-2.51;100.00;95338.20;108120;1277;25447;-77
2023/02/01 06:28:33;;;;;;;27.90;11.70;;;;;;;-2.50;100.00;95313.50;107210;1277;1003381;-78
2023/02/01 06:31:08;;;;;;;26.70;11.40;;;;;;;-2.49;100.00;95296.48;107907;1277;25423;-77
2023/02/01 06:33:37;;;;;;;26.00;10.20;;;;;;;-2.49;100.00;95292.05;107898;1276;23004;-77
2023/02/01 06:36:09;;;;;;;23.50;8.60;;;;;;;-2.49;100.00;95289.41;108162;1276;25438;-77
2023/02/01 06:38:38;;;;;;;26.60;9.90;;;;;;;-2.45;100.00;95266.86;108051;1276;22567;-76
2023/02/01 06:41:07;;;;;;;24.40;10.80;;;;;;;-2.41;100.00;95251.17;108249;1270;25439;-78
2023/02/01 06:43:37;;;;;;;26.20;9.20;;;;;;;-2.39;100.00;95238.89;107246;1269;1003060;-78
2023/02/01 06:46:08;;;;;;;23.40;8.80;;;;;;;-2.35;100.00;95219.07;108035;1276;24275;-76
2023/02/01 06:48:36;;;;;;;25.90;10.20;;;;;;;-2.31;100.00;95200.94;108026;1276;24044;-78
2023/02/01 06:51:05;;;;;;;23.50;9.00;;;;;;;-2.24;100.00;95184.79;108095;1270;22566;-77
2023/02/01 06:53:36;;;;;;;35.90;16.30;;;;;;;-2.18;100.00;95231.10;107748;1270;26519;-76
2023/02/01 06:56:05;;;;;;;35.10;14.30;;;;;;;-2.16;100.00;95395.84;107625;1269;24204;-75
2023/02/01 06:58:33;;;;;;;33.30;15.00;;;;;;;-2.15;100.00;95419.05;107735;1269;23761;-77
2023/02/01 07:01:06;;;;;;;30.60;12.00;;;;;;;-2.09;100.00;95410.45;107862;1270;24231;-75
2023/02/01 07:03:35;;;;;;;;;;;;;;;-2.03;100.00;95423.67;107983;1269;22508;-76
2023/02/01 07:06:05;;;;;;;24.90;10.40;;;;;;;-1.97;100.00;95473.84;107931;1270;22527;-75
2023/02/01 07:08:36;;;;;;;24.50;9.90;;;;;;;-1.93;100.00;95514.73;108109;1269;25249;-78
2023/02/01 07:11:10;;;;;;;29.10;11.80;;;;;;;-1.88;100.00;95528.86;107691;1270;22489;-76
2023/02/01 07:13:39;;;;;;;19.10;8.70;;;;;;;-1.84;100.00;95516.16;107931;1272;25316;-76
2023/02/01 07:16:16;;;;;;;19.50;8.10;;;;;;;-1.78;100.00;95510.87;106798;1276;1003245;-77
2023/02/01 07:18:46;;;;;;;20.30;8.50;;;;;;;-1.71;100.00;95488.09;107784;1270;23550;-77
2023/02/01 07:21:14;;;;;;;23.50;8.70;;;;;;;-1.65;100.00;95485.02;106927;1276;1002957;-77
2023/02/01 07:23:43;;;;;;;20.80;8.20;;;;;;;-1.61;100.00;95471.48;107830;1272;25419;-76
2023/02/01 07:26:13;;;;;;;22.90;9.20;;;;;;;-1.58;100.00;95464.79;107178;1272;1002550;-76
2023/02/01 07:28:43;;;;;;;22.90;9.80;;;;;;;-1.56;100.00;95455.02;107977;1271;23791;-73
2023/02/01 07:31:15;;;;;;;20.10;9.20;;;;;;;-1.53;100.00;95449.90;106826;1273;1003012;-74
2023/02/01 07:33:44;;;;;;;31.10;14.30;;;;;;;-1.47;100.00;95439.83;107775;1270;24320;-75
2023/02/01 07:36:15;;;;;;;24.00;12.10;;;;;;;-1.42;100.00;95442.52;107640;1273;24250;-74
2023/02/01 07:38:43;;;;;;;27.10;12.50;;;;;;;-1.37;100.00;95431.52;107950;1273;22526;-75
2023/02/01 07:41:12;;;;;;;39.80;18.60;;;;;;;-1.30;100.00;95425.67;107594;1276;25492;-74
2023/02/01 07:43:41;;;;;;;31.50;14.40;;;;;;;-1.26;100.00;95420.92;107878;1270;22538;-75
2023/02/01 07:46:10;;;;;;;35.90;14.60;;;;;;;-1.22;100.00;95410.06;107621;1269;25430;-75
2023/02/01 07:48:38;;;;;;;51.60;20.90;;;;;;;-1.18;100.00;95419.84;107285;1270;25875;-73
2023/02/01 07:51:12;;;;;;;35.60;17.80;;;;;;;-1.16;100.00;95426.52;107494;1270;24751;-74
2023/02/01 07:53:41;;;;;;;27.80;12.20;;;;;;;-1.09;100.00;95417.02;108762;1269;22537;-72
2023/02/01 07:56:15;;;;;;;23.50;11.10;;;;;;;-1.06;100.00;95421.48;108355;1269;22569;-75
2023/02/01 07:58:43;;;;;;;24.20;11.20;;;;;;;-1.00;100.00;95414.66;108402;1270;22666;-72
2023/02/01 08:01:29;;;;;;;25.50;10.80;;;;;;;-0.94;100.00;95415.27;107579;1276;23933;-73
2023/02/01 08:03:59;;;;;;;27.40;10.10;;;;;;;-0.88;100.00;95396.11;107143;1269;23076;-69
2023/02/01 08:06:30;;;;;;;26.60;11.70;;;;;;;-0.86;100.00;95416.02;106159;1270;1003578;-71
2023/02/01 08:08:59;;;;;;;26.50;11.50;;;;;;;-0.87;100.00;95415.77;106225;1276;1003755;-71
2023/02/01 08:11:28;;;;;;;29.90;12.90;;;;;;;-0.90;100.00;95427.66;107284;1270;22539;-72
2023/02/01 08:13:58;;;;;;;25.60;10.40;;;;;;;-0.89;100.00;95436.71;106943;1269;23855;-72
2023/02/01 08:16:27;;;;;;;21.30;9.90;;;;;;;-0.84;100.00;95436.89;107067;1276;25357;-70
2023/02/01 08:18:56;;;;;;;20.70;9.40;;;;;;;-0.85;100.00;95440.20;107257;1270;23298;-70
2023/02/01 08:21:26;;;;;;;22.80;9.80;;;;;;;-0.81;100.00;95428.55;107107;1272;25310;-72
2023/02/01 08:23:56;;;;;;;17.90;8.20;;;;;;;-0.77;100.00;95436.23;107016;1269;22553;-69
2023/02/01 08:26:25;;;;;;;20.00;8.30;;;;;;;-0.73;100.00;95447.45;106062;1273;1003694;-71
2023/02/01 08:28:57;;;;;;;22.80;9.50;;;;;;;-0.69;100.00;95454.84;106204;1270;1002845;-72
2023/02/01 08:31:27;;;;;;;26.10;11.20;;;;;;;-0.65;100.00;95460.61;106852;1272;23924;-71
2023/02/01 08:34:00;;;;;;;27.20;11.90;;;;;;;-0.61;100.00;95472.80;107030;1269;22533;-70
2023/02/01 08:36:29;;;;;;;26.50;12.90;;;;;;;-0.63;100.00;95506.33;106936;1269;23116;-71
2023/02/01 08:38:58;;;;;;;23.10;10.30;;;;;;;-0.59;100.00;95534.86;106892;1276;23870;-72
2023/02/01 08:41:28;;;;;;;26.50;11.70;;;;;;;-0.57;100.00;95552.45;106921;1272;25437;-71
2023/02/01 08:43:59;;;;;;;27.20;11.70;;;;;;;-0.66;100.00;95575.51;106923;1276;25594;-71
2023/02/01 08:46:28;;;;;;;24.30;10.80;;;;;;;-0.80;100.00;95619.63;106870;1270;22690;-72
2023/02/01 08:48:57;;;;;;;29.20;11.80;;;;;;;-0.92;100.00;95653.46;106830;1271;25347;-71
2023/02/01 08:51:26;;;;;;;22.40;9.80;;;;;;;-0.95;100.00;95681.98;106969;1273;24536;-71
2023/02/01 08:53:54;;;;;;;28.80;12.40;;;;;;;-0.94;100.00;95711.02;106950;1273;22523;-72
2023/02/01 08:56:23;;;;;;;25.50;10.30;;;;;;;-0.97;100.00;95739.98;106139;1277;1002564;-71
2023/02/01 08:58:52;;;;;;;29.10;11.50;;;;;;;-0.96;100.00;95766.58;106902;1277;22782;-71
2023/02/01 09:01:21;;;;;;;25.90;12.40;;;;;;;-0.98;100.00;95797.75;106919;1269;24832;-70
2023/02/01 09:03:50;;;;;;;27.70;13.50;;;;;;;-1.03;100.00;95839.14;106945;1276;22648;-72
2023/02/01 09:06:18;;;;;;;31.70;13.90;;;;;;;-1.06;100.00;95872.18;106943;1271;22720;-71
2023/02/01 09:08:51;;;;;;;32.10;16.80;;;;;;;-1.09;100.00;95885.55;106850;1269;25551;-70
2023/02/01 09:11:20;;;;;;;29.30;14.60;;;;;;;-1.14;100.00;95908.58;106962;1269;22764;-72
2023/02/01 09:13:51;;;;;;;28.70;13.80;;;;;;;-1.14;100.00;95922.20;106810;1270;26506;-71
2023/02/01 09:16:20;;;;;;;23.70;12.20;;;;;;;-1.13;100.00;95940.27;106890;1277;26640;-70
2023/02/01 09:18:48;;;;;;;22.20;10.20;;;;;;;-1.06;100.00;95946.30;106779;1269;23879;-71
2023/02/01 09:21:35;;;;;;;25.80;10.70;;;;;;;-0.97;100.00;95931.48;106812;1269;24510;-71
2023/02/01 09:24:06;;;;;;;23.60;11.40;;;;;;;-0.93;100.00;95951.92;106965;1270;23917;-72
2023/02/01 09:26:35;;;;;;;25.00;11.20;;;;;;;-0.94;100.00;95959.92;106720;1269;25327;-68
2023/02/01 09:29:12;;;;;;;26.70;11.10;;;;;;;-0.95;100.00;95968.84;106942;1253;22529;-72
2023/02/01 09:31:41;;;;;;;28.80;12.00;;;;;;;-0.92;100.00;95958.83;106929;1269;24469;-68
2023/02/01 09:34:24;;;;;;;22.60;9.10;;;;;;;-0.93;100.00;95955.19;107184;1269;25376;-67
2023/02/01 09:36:53;;;;;;;24.10;10.00;;;;;;;-0.95;100.00;95979.05;106189;1269;1003094;-70
2023/02/01 09:39:22;;;;;;;26.70;12.20;;;;;;;-0.97;100.00;95991.92;106864;1269;26512;-68
2023/02/01 09:42:24;;;;;;;23.00;10.40;;;;;;;-1.00;100.00;96014.08;105876;1269;1003050;-69
2023/02/01 09:45:18;;;;;;;26.30;12.00;;;;;;;-1.01;100.00;96000.03;106597;1269;25264;-70
2023/02/01 09:48:09;;;;;;;23.00;10.20;;;;;;;-1.02;100.00;96019.41;106997;1269;25532;-68
2023/02/01 09:50:40;;;;;;;24.20;11.10;;;;;;;-1.06;100.00;96055.33;106691;1270;25350;-68
2023/02/01 09:53:31;;;;;;;23.50;10.00;;;;;;;-1.14;100.00;96072.83;106945;1269;25872;-68
2023/02/01 09:56:08;;;;;;;23.50;9.60;;;;;;;-1.17;100.00;96067.09;106873;1270;25977;-70
2023/02/01 09:58:39;;;;;;;22.40;9.10;;;;;;;-1.25;100.00;96091.88;106856;1269;26584;-69
2023/02/01 10:01:18;;;;;;;20.20;8.50;;;;;;;-1.28;100.00;96103.59;106890;1269;22515;-69
2023/02/01 10:03:47;;;;;;;20.00;8.80;;;;;;;-1.32;100.00;96109.36;106780;1272;22792;-68
2023/02/01 10:06:35;;;;;;;24.00;10.00;;;;;;;-1.43;100.00;96132.95;106129;1269;1003507;-65
2023/02/01 10:09:10;;;;;;;19.00;8.40;;;;;;;-1.44;100.00;96128.02;107261;1269;24234;-67
2023/02/01 10:12:01;;;;;;;18.90;8.40;;;;;;;-1.46;100.00;96145.90;106270;1275;1003036;-66
2023/02/01 10:14:56;;;;;;;20.10;8.30;;;;;;;-1.50;100.00;96152.22;106872;1275;22622;-67
2023/02/01 10:17:47;;;;;;;17.40;7.40;;;;;;;-1.58;100.00;96165.48;107027;1269;25263;-69
2023/02/01 10:20:46;;;;;;;22.50;8.80;;;;;;;-1.58;100.00;96175.59;107011;1268;26482;-68
2023/02/01 10:23:38;;;;;;;18.30;7.90;;;;;;;-1.58;100.00;96174.48;106255;1275;1016151;-69
2023/02/01 10:26:23;;;;;;;27.10;13.20;;;;;;;-1.63;100.00;96184.34;107054;1269;22513;-67
2023/02/01 10:28:56;;;;;;;20.20;9.50;;;;;;;-1.79;100.00;96211.14;106932;1269;25249;-69
2023/02/01 10:31:26;;;;;;;;;;;;;;;-1.89;100.00;96245.98;107063;1270;22449;-69
2023/02/01 10:33:59;;;;;;;20.20;8.70;;;;;;;-1.91;100.00;96260.06;107027;1269;26501;-67
2023/02/01 10:36:30;;;;;;;30.00;11.20;;;;;;;-1.94;100.00;96268.41;107120;1275;22648;-67
2023/02/01 10:38:59;;;;;;;23.90;9.70;;;;;;;-1.94;100.00;96270.67;107135;1269;24267;-68
2023/02/01 10:41:35;;;;;;;26.10;10.50;;;;;;;-1.91;100.00;96263.64;107268;1268;22517;-69
2023/02/01 10:44:12;;;;;;;20.50;8.60;;;;;;;-1.87;100.00;96251.85;107051;1270;25256;-67
2023/02/01 10:46:41;;;;;;;17.70;7.70;;;;;;;-1.92;100.00;96251.87;106417;1270;26780;-70
2023/02/01 10:49:32;;;;;;;18.80;8.00;;;;;;;-1.96;100.00;96264.07;106376;1269;1002864;-70
2023/02/01 10:52:15;;;;;;;18.80;8.40;;;;;;;-2.02;100.00;96258.49;106156;1269;1003493;-71
2023/02/01 10:54:44;;;;;;;30.80;11.80;;;;;;;-2.13;100.00;96275.30;106922;1272;25478;-70
2023/02/01 10:57:25;;;;;;;23.90;9.70;;;;;;;-2.14;100.00;96284.17;107039;1270;25814;-69
2023/02/01 10:59:57;;;;;;;32.10;12.80;;;;;;;-2.09;100.00;96273.73;107183;1269;23260;-68
2023/02/01 11:02:32;;;;;;;22.50;10.20;;;;;;;-2.08;100.00;96277.36;106536;1269;26338;-70
2023/02/01 11:05:05;;;;;;;28.00;12.30;;;;;;;-2.14;100.00;96281.44;106359;1268;1003004;-69
2023/02/01 11:07:39;;;;;;;41.90;16.90;;;;;;;-2.19;100.00;96275.54;107091;1269;25307;-71
2023/02/01 11:10:10;;;;;;;35.40;13.60;;;;;;;-2.17;100.00;96277.04;106677;1270;1003249;-76
2023/02/01 11:12:39;;;;;;;63.40;19.70;;;;;;;-2.10;100.00;96265.94;107361;1270;26699;-72
2023/02/01 11:15:18;;;;;;;31.70;12.10;;;;;;;-2.02;100.00;96253.54;107209;1269;22646;-71
2023/02/01 11:17:51;;;;;;;25.80;9.10;;;;;;;-1.97;100.00;96238.73;107139;1269;22534;-71
2023/02/01 11:20:41;;;;;;;20.50;9.40;;;;;;;-1.99;100.00;96241.02;107237;1268;25383;-71
2023/02/01 11:23:18;;;;;;;26.00;11.50;;;;;;;-2.03;100.00;96227.49;107112;1269;25357;-72
2023/02/01 11:26:00;;;;;;;33.70;12.30;;;;;;;-2.04;100.00;96236.80;106951;1269;22775;-72
2023/02/01 11:28:31;;;;;;;32.70;13.80;;;;;;;-2.05;100.00;96235.03;107047;1270;25476;-70
2023/02/01 11:31:04;;;;;;;20.60;8.80;;;;;;;-2.10;100.00;96246.39;107129;1269;24223;-71
2023/02/01 11:33:36;;;;;;;25.50;10.50;;;;;;;-2.16;100.00;96250.99;106991;1270;23279;-69
2023/02/01 11:36:29;;;;;;;23.10;9.10;;;;;;;-2.23;100.00;96261.19;106951;1269;23220;-68
2023/02/01 11:39:28;;;;;;;20.80;8.20;;;;;;;-2.26;100.00;96249.89;107025;1269;24247;-67
2023/02/01 11:42:05;;;;;;;26.40;11.90;;;;;;;-2.20;100.00;96241.17;107029;1275;25387;-67
2023/02/01 11:44:37;;;;;;;23.90;10.10;;;;;;;-2.17;100.00;96249.44;107090;1272;25310;-66
2023/02/01 11:47:31;;;;;;;18.50;8.30;;;;;;;-2.18;100.00;96248.33;107021;1269;22524;-68
2023/02/01 11:50:02;;;;;;;18.80;7.70;;;;;;;-2.26;100.00;96229.52;106909;1275;22778;-69
2023/02/01 11:53:00;;;;;;;24.40;8.40;;;;;;;-2.34;100.00;96245.64;106970;1272;22527;-69
2023/02/01 11:55:38;;;;;;;23.40;8.80;;;;;;;-2.29;100.00;96224.23;107273;1273;25455;-71